Time;durP1;ratioP1;P1;durP2;ratioP2;P2;SDS_P1;SDS_P2;PMS_P1;PMS_P2;Temp;Humidity;BMP_temperature;BMP_pressure;BME280_temperature;BME280_humidity;BME280_pressure;Samples;Min_cycle;Max_cycle;Signal;HPM_P1;HPM_P2
2021/04/01 00:02:26;;;;;;;7.85;4.28;;;11.30;98.80;;;;;;5066684;28;20033;-82
2021/04/01 00:04:51;;;;;;;8.90;3.50;;;11.30;98.90;;;;;;5039829;28;20079;-83
2021/04/01 00:07:19;;;;;;;9.63;4.00;;;11.30;99.00;;;;;;5038018;28;20017;-81
2021/04/01 00:09:44;;;;;;;9.18;3.95;;;11.30;99.10;;;;;;5034404;28;20037;-82
2021/04/01 00:12:10;;;;;;;9.80;3.40;;;11.30;99.20;;;;;;5041150;28;20396;-81
2021/04/01 00:14:36;;;;;;;9.23;3.67;;;11.20;99.20;;;;;;5044384;28;20114;-81
2021/04/01 00:17:04;;;;;;;14.38;3.70;;;11.20;99.30;;;;;;5042950;28;20484;-81
2021/04/01 00:19:30;;;;;;;9.07;3.90;;;11.20;99.30;;;;;;5040069;28;20029;-81
2021/04/01 00:21:55;;;;;;;10.35;3.75;;;11.20;99.30;;;;;;5036199;28;20033;-81
2021/04/01 00:24:22;;;;;;;10.40;3.58;;;11.20;99.50;;;;;;5043796;28;20033;-82
2021/04/01 00:26:48;;;;;;;8.60;3.80;;;11.20;99.50;;;;;;5040765;28;20079;-82
2021/04/01 00:29:13;;;;;;;7.28;3.45;;;11.20;99.50;;;;;;5050144;28;20026;-82
2021/04/01 00:31:39;;;;;;;11.02;3.30;;;11.20;99.60;;;;;;5024917;28;20039;-82
2021/04/01 00:34:05;;;;;;;10.70;3.50;;;11.20;99.70;;;;;;5040836;28;20450;-81
2021/04/01 00:36:30;;;;;;;9.50;3.85;;;11.10;99.70;;;;;;5047672;28;20037;-82
2021/04/01 00:38:56;;;;;;;7.60;3.28;;;11.10;99.80;;;;;;5045046;28;20029;-81
2021/04/01 00:41:21;;;;;;;14.80;4.25;;;11.10;99.80;;;;;;5040363;28;20029;-81
2021/04/01 00:43:47;;;;;;;8.40;3.85;;;11.10;99.90;;;;;;5039891;28;20025;-81
2021/04/01 00:46:12;;;;;;;10.45;3.80;;;11.10;99.90;;;;;;5047303;28;20028;-82
2021/04/01 00:48:38;;;;;;;10.80;4.07;;;11.00;99.90;;;;;;5036602;28;20472;-81
2021/04/01 00:51:04;;;;;;;9.23;3.60;;;11.10;99.90;;;;;;5036367;28;20064;-82
2021/04/01 00:53:30;;;;;;;9.65;3.92;;;11.00;99.90;;;;;;5036700;28;20025;-80
2021/04/01 00:55:56;;;;;;;12.63;3.92;;;11.00;99.90;;;;;;5034471;28;20148;-82
2021/04/01 00:58:22;;;;;;;11.75;3.70;;;11.00;99.90;;;;;;5042344;28;20109;-82
2021/04/01 01:00:55;;;;;;;8.05;3.95;;;10.90;99.90;;;;;;5044797;28;20021;-81
2021/04/01 01:03:21;;;;;;;10.27;4.03;;;10.90;99.90;;;;;;5031312;28;20037;-80
2021/04/01 01:05:46;;;;;;;9.65;3.65;;;10.90;99.90;;;;;;5046992;28;20048;-82
2021/04/01 01:08:12;;;;;;;7.95;3.75;;;10.90;99.90;;;;;;5063678;28;20033;-81
2021/04/01 01:10:38;;;;;;;9.15;3.78;;;10.90;99.90;;;;;;5051089;28;20137;-81
2021/04/01 01:13:03;;;;;;;11.32;4.10;;;10.90;99.90;;;;;;5035855;28;20049;-82
2021/04/01 01:15:29;;;;;;;11.18;3.55;;;10.90;99.90;;;;;;5033366;28;20055;-82
2021/04/01 01:17:56;;;;;;;10.43;3.95;;;10.90;99.90;;;;;;5042671;28;20037;-82
2021/04/01 01:20:27;;;;;;;18.80;5.03;;;10.80;99.90;;;;;;5036757;28;20052;-82
2021/04/01 01:22:53;;;;;;;9.85;4.30;;;10.80;99.90;;;;;;5035815;28;20029;-82
2021/04/01 01:25:21;;;;;;;7.35;3.53;;;10.80;99.90;;;;;;5046705;28;20444;-82
2021/04/01 01:27:46;;;;;;;11.93;3.63;;;10.80;99.90;;;;;;5037980;28;20053;-83
2021/04/01 01:30:16;;;;;;;10.73;3.80;;;10.80;99.90;;;;;;5047150;28;20522;-82
2021/04/01 01:32:45;;;;;;;12.13;3.88;;;10.70;99.90;;;;;;5037329;28;20021;-82
2021/04/01 01:35:23;;;;;;;16.07;3.67;;;10.70;99.90;;;;;;5047390;28;20400;-80
2021/04/01 01:37:54;;;;;;;8.38;3.47;;;10.60;99.90;;;;;;5041148;28;20288;-81
2021/04/01 01:40:25;;;;;;;8.68;3.22;;;10.70;99.90;;;;;;5039426;28;20032;-81
2021/04/01 01:42:53;;;;;;;6.95;3.50;;;10.60;99.90;;;;;;5045949;28;20107;-83
2021/04/01 01:45:20;;;;;;;11.32;3.63;;;10.60;99.90;;;;;;5036097;28;20030;-81
2021/04/01 01:47:46;;;;;;;6.88;3.15;;;10.60;99.90;;;;;;5039321;28;20055;-80
2021/04/01 01:50:14;;;;;;;9.77;4.35;;;10.60;99.90;;;;;;5040300;28;20040;-82
2021/04/01 01:52:41;;;;;;;7.30;3.15;;;10.60;99.90;;;;;;5044295;28;20021;-81
2021/04/01 01:55:08;;;;;;;9.85;4.03;;;10.60;99.90;;;;;;5047090;28;20083;-83
2021/04/01 01:57:34;;;;;;;8.93;3.47;;;10.60;99.90;;;;;;5038127;28;20110;-82
2021/04/01 02:00:02;;;;;;;10.65;3.60;;;10.60;99.90;;;;;;5039196;28;20028;-81
2021/04/01 02:02:28;;;;;;;7.65;3.40;;;10.50;99.90;;;;;;5046491;28;20037;-80
2021/04/01 02:04:53;;;;;;;8.10;3.38;;;10.50;99.90;;;;;;5039635;28;20045;-81
2021/04/01 02:07:19;;;;;;;9.02;3.30;;;10.50;99.90;;;;;;5041920;28;20104;-80
2021/04/01 02:09:46;;;;;;;8.13;3.28;;;10.50;99.90;;;;;;5043126;28;20420;-81
2021/04/01 02:12:14;;;;;;;9.95;3.60;;;10.40;99.90;;;;;;5044078;28;20041;-81
2021/04/01 02:14:39;;;;;;;10.90;3.65;;;10.40;99.90;;;;;;5060151;28;20040;-81
2021/04/01 02:17:07;;;;;;;9.43;3.72;;;10.40;99.90;;;;;;5054832;28;20045;-80
2021/04/01 02:19:33;;;;;;;8.25;3.45;;;10.40;99.90;;;;;;5034443;28;20021;-80
2021/04/01 02:21:59;;;;;;;8.55;3.47;;;10.30;99.90;;;;;;5041473;28;20037;-81
2021/04/01 02:24:24;;;;;;;8.95;3.55;;;10.30;99.90;;;;;;5038431;28;20112;-82
2021/04/01 02:26:54;;;;;;;11.15;3.40;;;10.30;99.90;;;;;;5034279;28;20021;-82
2021/04/01 02:29:20;;;;;;;7.57;3.40;;;10.30;99.90;;;;;;5038591;28;20025;-81
2021/04/01 02:31:46;;;;;;;9.63;3.60;;;10.20;99.90;;;;;;5040269;28;20028;-81
2021/04/01 02:34:11;;;;;;;8.02;3.53;;;10.20;99.90;;;;;;5036622;28;20026;-83
2021/04/01 02:36:37;;;;;;;10.90;3.20;;;10.20;99.90;;;;;;5038456;28;20094;-82
2021/04/01 02:39:03;;;;;;;15.15;3.75;;;10.20;99.90;;;;;;5045744;28;20130;-81
2021/04/01 02:41:28;;;;;;;12.65;3.42;;;10.20;99.90;;;;;;5042184;28;20108;-82
2021/04/01 02:43:54;;;;;;;9.18;3.10;;;10.20;99.90;;;;;;5039302;28;20029;-82
2021/04/01 02:46:19;;;;;;;10.48;3.45;;;10.20;99.90;;;;;;5034998;28;20025;-81
2021/04/01 02:48:45;;;;;;;9.52;3.15;;;10.10;99.90;;;;;;5040433;28;20033;-83
2021/04/01 02:51:10;;;;;;;9.35;3.47;;;10.10;99.90;;;;;;5034283;28;20112;-81
2021/04/01 02:53:36;;;;;;;8.05;3.63;;;10.10;99.90;;;;;;5031814;28;20041;-82
2021/04/01 02:56:02;;;;;;;8.23;3.30;;;10.10;99.90;;;;;;5040181;28;20515;-81
2021/04/01 02:58:28;;;;;;;7.28;3.33;;;10.20;99.90;;;;;;5048127;28;20068;-82
2021/04/01 03:00:53;;;;;;;6.75;3.10;;;10.20;99.90;;;;;;5045298;28;20441;-82
2021/04/01 03:03:22;;;;;;;9.73;3.65;;;10.20;99.90;;;;;;5036022;28;20099;-82
2021/04/01 03:05:48;;;;;;;7.87;3.20;;;10.20;99.90;;;;;;5041139;28;20067;-82
2021/04/01 03:08:13;;;;;;;11.63;3.88;;;10.10;99.90;;;;;;5038833;28;20037;-80
2021/04/01 03:10:39;;;;;;;7.15;3.22;;;10.10;99.90;;;;;;5041827;28;20036;-81
2021/04/01 03:13:04;;;;;;;8.80;3.28;;;10.10;99.90;;;;;;5039804;28;20036;-81
2021/04/01 03:15:30;;;;;;;8.38;3.22;;;10.00;99.90;;;;;;5034686;28;20512;-82
2021/04/01 03:17:57;;;;;;;8.75;3.05;;;10.10;99.90;;;;;;5056496;28;20024;-81
2021/04/01 03:20:23;;;;;;;9.75;3.28;;;10.10;99.90;;;;;;5054827;28;20336;-81
2021/04/01 03:22:49;;;;;;;9.20;3.60;;;10.00;99.90;;;;;;5065212;28;20051;-81
2021/04/01 03:25:16;;;;;;;9.73;3.72;;;10.00;99.90;;;;;;5035894;28;20033;-82
2021/04/01 03:27:42;;;;;;;10.95;3.53;;;10.00;99.90;;;;;;5041000;28;20029;-82
2021/04/01 03:30:13;;;;;;;9.68;3.20;;;10.00;99.90;;;;;;5043034;28;20049;-82
2021/04/01 03:32:41;;;;;;;8.18;3.03;;;10.00;99.90;;;;;;5039440;28;20030;-81
2021/04/01 03:35:12;;;;;;;10.30;3.15;;;10.00;99.90;;;;;;5032550;28;20034;-81
2021/04/01 03:37:38;;;;;;;7.15;3.30;;;10.00;99.90;;;;;;5042231;28;20018;-82
2021/04/01 03:40:06;;;;;;;8.55;3.53;;;10.00;99.90;;;;;;5038223;28;20134;-80
2021/04/01 03:42:32;;;;;;;11.88;3.88;;;10.00;99.90;;;;;;5030402;28;20448;-82
2021/04/01 03:44:58;;;;;;;8.63;3.15;;;9.90;99.90;;;;;;5041873;28;20035;-81
2021/04/01 03:47:25;;;;;;;9.75;3.22;;;9.90;99.90;;;;;;5049554;28;20464;-80
2021/04/01 03:49:50;;;;;;;9.93;3.72;;;9.90;99.90;;;;;;5041556;28;20018;-81
2021/04/01 03:52:16;;;;;;;6.43;2.80;;;9.90;99.90;;;;;;5039776;28;20033;-82
2021/04/01 03:54:45;;;;;;;8.68;3.33;;;10.00;99.90;;;;;;5036825;28;20574;-81
2021/04/01 03:57:11;;;;;;;7.95;2.78;;;9.90;99.90;;;;;;5038419;28;20029;-82
2021/04/01 04:02:18;;;;;;;10.25;3.35;;;9.90;99.90;;;;;;5038816;28;20036;-81
2021/04/01 04:04:53;;;;;;;8.70;3.38;;;10.00;99.90;;;;;;5048086;28;20703;-82
2021/04/01 04:07:46;;;;;;;11.20;3.28;;;10.00;99.90;;;;;;5038849;28;20047;-79
2021/04/01 04:10:19;;;;;;;6.07;3.13;;;9.90;99.90;;;;;;5040385;28;20024;-82
2021/04/01 04:12:56;;;;;;;11.52;3.30;;;9.90;99.90;;;;;;5042960;28;20108;-81
2021/04/01 04:15:22;;;;;;;7.50;3.17;;;10.00;99.90;;;;;;5036953;28;20041;-81
2021/04/01 04:17:49;;;;;;;7.60;3.42;;;10.00;99.90;;;;;;5048226;28;20037;-80
2021/04/01 04:20:16;;;;;;;10.13;3.20;;;10.00;99.90;;;;;;5045335;28;20465;-81
2021/04/01 04:22:42;;;;;;;6.70;2.75;;;10.00;99.90;;;;;;5044812;28;20031;-82
2021/04/01 04:25:10;;;;;;;11.15;3.25;;;10.00;99.90;;;;;;5046603;28;20025;-82
2021/04/01 04:30:15;;;;;;;7.95;3.40;;;10.00;99.90;;;;;;5057854;28;20035;-80
2021/04/01 04:32:41;;;;;;;8.57;3.08;;;10.00;99.90;;;;;;5051746;28;20051;-81
2021/04/01 04:35:07;;;;;;;9.20;2.88;;;10.00;99.90;;;;;;5034077;28;20120;-81
2021/04/01 04:37:32;;;;;;;9.32;3.00;;;10.00;99.90;;;;;;5032139;28;20022;-81
2021/04/01 04:39:58;;;;;;;10.80;3.08;;;10.00;99.90;;;;;;5044356;28;20044;-82
2021/04/01 04:42:24;;;;;;;7.55;2.75;;;10.00;99.90;;;;;;5040632;28;20025;-82
2021/04/01 04:44:49;;;;;;;7.93;2.80;;;10.00;99.90;;;;;;5032458;28;20040;-82
2021/04/01 04:47:15;;;;;;;8.77;3.30;;;10.00;99.90;;;;;;5043973;28;20124;-82
2021/04/01 04:49:41;;;;;;;8.35;2.70;;;10.00;99.90;;;;;;5041097;28;20025;-82
2021/04/01 04:52:08;;;;;;;7.20;2.67;;;10.00;99.90;;;;;;5036646;28;20397;-82
2021/04/01 04:54:34;;;;;;;8.38;3.05;;;10.00;99.90;;;;;;5046742;28;20128;-81
2021/04/01 04:57:13;;;;;;;8.10;3.08;;;10.00;99.90;;;;;;5043823;28;20025;-83
2021/04/01 04:59:58;;;;;;;7.95;2.90;;;10.00;99.90;;;;;;5046330;28;20068;-82
2021/04/01 05:05:08;;;;;;;7.03;2.60;;;10.00;99.90;;;;;;5040515;28;20056;-81
2021/04/01 05:07:34;;;;;;;9.77;3.03;;;10.10;99.90;;;;;;5044628;28;20568;-82
2021/04/01 05:09:59;;;;;;;9.52;2.92;;;10.10;99.90;;;;;;5050430;28;20032;-84
2021/04/01 05:12:25;;;;;;;9.20;2.70;;;10.10;99.90;;;;;;5040382;28;20032;-81
2021/04/01 05:14:51;;;;;;;13.10;2.70;;;10.10;99.90;;;;;;5042262;28;20048;-83
2021/04/01 05:17:18;;;;;;;7.03;2.65;;;10.20;99.90;;;;;;5050087;28;20029;-83
2021/04/01 05:19:45;;;;;;;10.60;2.88;;;10.20;99.90;;;;;;5035550;28;20029;-81
2021/04/01 05:24:37;;;;;;;10.40;2.92;;;10.30;99.90;;;;;;5051009;28;20044;-83
2021/04/01 05:27:16;;;;;;;9.80;2.67;;;10.30;99.90;;;;;;5038927;28;20408;-81
2021/04/01 05:29:58;;;;;;;6.72;3.22;;;10.40;99.90;;;;;;5041161;28;20492;-82
2021/04/01 05:32:26;;;;;;;8.43;2.78;;;10.50;99.90;;;;;;5050319;28;20067;-82
2021/04/01 05:34:51;;;;;;;5.65;2.75;;;10.50;99.90;;;;;;5051940;28;20087;-81
2021/04/01 05:37:17;;;;;;;10.18;2.70;;;10.60;99.90;;;;;;5050267;28;20020;-81
2021/04/01 05:39:45;;;;;;;10.05;2.72;;;10.60;99.90;;;;;;5041293;28;20104;-82
2021/04/01 05:42:11;;;;;;;6.32;2.33;;;10.80;99.90;;;;;;5046479;28;20425;-84
2021/04/01 05:44:43;;;;;;;10.80;2.63;;;11.00;99.70;;;;;;5039786;28;20056;-82
2021/04/01 05:47:17;;;;;;;6.20;2.70;;;11.00;99.60;;;;;;5047865;28;20017;-82
2021/04/01 05:58:19;;;;;;;9.98;2.40;;;11.30;99.20;;;;;;5046107;28;20488;-82
2021/04/01 06:05:52;;;;;;;7.35;2.92;;;12.50;98.10;;;;;;5043879;28;20021;-84
2021/04/01 06:08:24;;;;;;;7.05;2.47;;;12.80;97.30;;;;;;5041031;28;20025;-79
2021/04/01 06:10:51;;;;;;;5.80;2.80;;;13.10;97.00;;;;;;5047000;28;20032;-80
2021/04/01 06:13:18;;;;;;;8.68;2.60;;;13.20;96.70;;;;;;5047610;28;20031;-81
2021/04/01 06:15:47;;;;;;;8.27;2.80;;;13.40;96.50;;;;;;5042544;28;20041;-81
2021/04/01 06:18:15;;;;;;;8.63;3.17;;;13.60;96.00;;;;;;5052335;28;20059;-81
2021/04/01 06:20:44;;;;;;;8.50;2.67;;;13.70;96.00;;;;;;5049848;28;20036;-78
2021/04/01 06:23:31;;;;;;;5.68;2.67;;;13.80;96.00;;;;;;5046210;28;20029;-79
2021/04/01 06:25:58;;;;;;;7.10;2.22;;;13.70;95.90;;;;;;5043619;28;20029;-82
2021/04/01 06:28:52;;;;;;;4.15;1.98;;;13.50;95.60;;;;;;5046894;28;20021;-80
2021/04/01 06:31:25;;;;;;;5.50;2.20;;;13.20;96.00;;;;;;5046426;28;20036;-79
2021/04/01 06:33:55;;;;;;;9.27;2.70;;;13.10;96.10;;;;;;5044568;28;20159;-81
2021/04/01 06:36:25;;;;;;;8.57;2.33;;;13.00;96.00;;;;;;5047507;28;20095;-80
2021/04/01 06:38:51;;;;;;;7.93;2.22;;;13.10;96.20;;;;;;5047009;28;20021;-79
2021/04/01 06:41:23;;;;;;;5.35;2.30;;;13.10;96.10;;;;;;5045459;28;20029;-81
2021/04/01 06:44:14;;;;;;;4.38;2.13;;;13.20;96.00;;;;;;5046923;28;20073;-80
2021/04/01 06:46:45;;;;;;;8.73;2.33;;;13.30;95.80;;;;;;5050749;28;20712;-78
2021/04/01 06:52:00;;;;;;;9.65;2.78;;;13.50;95.90;;;;;;5037710;28;21608;-79
2021/04/01 06:54:42;;;;;;;10.10;2.50;;;13.60;95.60;;;;;;5038472;28;20433;-78
2021/04/01 06:57:47;;;;;;;8.20;2.47;;;13.80;95.50;;;;;;5048837;28;20036;-79
2021/04/01 07:03:10;;;;;;;5.55;2.20;;;14.20;94.60;;;;;;5042810;28;20063;-78
2021/04/01 07:05:47;;;;;;;6.47;2.30;;;14.30;94.80;;;;;;5045331;28;20624;-80
2021/04/01 07:08:14;;;;;;;8.52;2.58;;;14.40;94.30;;;;;;5039655;28;20025;-80
2021/04/01 07:10:54;;;;;;;9.35;2.75;;;14.50;94.50;;;;;;5045913;28;20050;-80
2021/04/01 07:13:34;;;;;;;7.18;3.08;;;14.60;94.80;;;;;;5039744;28;20448;-82
2021/04/01 07:16:24;;;;;;;9.57;2.45;;;14.70;94.30;;;;;;5037741;28;20045;-81
2021/04/01 07:22:25;;;;;;;7.47;2.33;;;15.00;93.70;;;;;;5050572;28;20500;-80
2021/04/01 07:48:48;;;;;;;7.93;2.78;;;16.30;92.40;;;;;;5048868;28;20067;-81
2021/04/01 07:54:13;;;;;;;10.13;3.22;;;16.20;91.80;;;;;;5043685;28;20037;-81
2021/04/01 07:56:49;;;;;;;10.05;3.33;;;16.30;91.80;;;;;;5038594;28;20053;-81
2021/04/01 08:04:44;;;;;;;10.77;3.28;;;16.60;91.90;;;;;;5049701;28;20138;-82
2021/04/01 08:07:12;;;;;;;8.13;2.95;;;16.70;92.00;;;;;;5052118;28;20029;-84
2021/04/01 08:09:41;;;;;;;14.30;3.35;;;16.80;92.10;;;;;;5055192;28;20081;-83
2021/04/01 08:12:18;;;;;;;10.90;3.10;;;16.70;92.20;;;;;;5049889;28;20025;-83
2021/04/01 08:14:53;;;;;;;13.45;3.72;;;16.80;92.20;;;;;;5044706;28;20087;-80
2021/04/01 08:17:28;;;;;;;9.65;4.30;;;16.70;92.40;;;;;;5053475;28;20059;-83
2021/04/01 08:19:58;;;;;;;12.57;4.45;;;16.80;92.10;;;;;;5051677;28;20035;-83
2021/04/01 08:22:26;;;;;;;;;;;16.80;92.30;;;;;;5050747;28;20379;-81
2021/04/01 08:24:56;;;;;;;11.32;4.20;;;16.80;92.60;;;;;;5043827;28;19966;-80
2021/04/01 08:33:43;;;;;;;11.50;4.50;;;17.10;92.50;;;;;;5000951;28;20056;-78
2021/04/01 08:36:10;;;;;;;11.20;3.95;;;17.20;92.40;;;;;;5006191;28;20075;-78
2021/04/01 08:38:39;;;;;;;13.82;4.38;;;17.20;92.30;;;;;;5006993;28;20421;-78
2021/04/01 08:41:25;;;;;;;12.30;4.65;;;17.40;92.60;;;;;;5006210;28;20143;-74
2021/04/01 08:44:10;;;;;;;14.10;5.07;;;17.50;92.10;;;;;;5006127;28;20548;-77
2021/04/01 08:46:47;;;;;;;18.63;5.80;;;17.70;92.10;;;;;;5006914;28;20087;-78
2021/04/01 08:49:35;;;;;;;13.57;6.35;;;18.00;92.00;;;;;;5007049;28;20045;-77
2021/04/01 08:52:30;;;;;;;15.80;6.05;;;18.00;91.20;;;;;;5008957;28;20065;-78
2021/04/01 08:55:07;;;;;;;11.32;5.60;;;18.10;91.30;;;;;;5006490;28;20078;-78
2021/04/01 08:58:01;;;;;;;13.77;5.75;;;18.20;91.60;;;;;;5009297;28;20041;-79
2021/04/01 09:00:29;;;;;;;14.10;5.68;;;18.30;91.20;;;;;;5006363;28;20108;-79
2021/04/01 09:02:55;;;;;;;18.05;6.25;;;18.30;90.70;;;;;;5003657;28;20667;-80
2021/04/01 09:05:22;;;;;;;16.70;5.57;;;18.30;91.20;;;;;;5001975;28;20061;-80
2021/04/01 09:08:01;;;;;;;14.77;5.82;;;18.30;90.80;;;;;;5030268;28;20045;-80
2021/04/01 09:10:32;;;;;;;16.35;6.65;;;18.40;91.30;;;;;;5045619;28;20022;-82
2021/04/01 09:13:11;;;;;;;19.70;6.45;;;18.60;90.70;;;;;;5037686;28;20108;-81
2021/04/01 09:15:47;;;;;;;17.50;7.00;;;18.60;91.10;;;;;;5039175;28;20044;-79
2021/04/01 09:18:20;;;;;;;16.15;6.05;;;18.80;91.00;;;;;;5044289;28;20029;-78
2021/04/01 09:20:49;;;;;;;18.15;6.90;;;18.90;90.50;;;;;;5042420;28;20033;-79
2021/04/01 09:23:16;;;;;;;13.20;6.68;;;19.00;90.30;;;;;;5034407;28;20041;-81
2021/04/01 09:25:45;;;;;;;18.70;6.55;;;19.00;90.50;;;;;;5048273;28;20041;-81
2021/04/01 09:28:13;;;;;;;19.20;6.10;;;19.10;90.80;;;;;;5048627;28;20024;-80
2021/04/01 09:30:39;;;;;;;18.67;6.70;;;19.20;90.80;;;;;;5045500;28;20064;-79
2021/04/01 09:33:14;;;;;;;15.55;6.45;;;19.40;90.50;;;;;;5042737;28;20037;-78
2021/04/01 09:35:39;;;;;;;14.82;5.82;;;19.50;89.80;;;;;;5034815;28;20047;-80
2021/04/01 09:38:10;;;;;;;15.85;6.88;;;19.50;90.10;;;;;;5036454;28;20109;-75
2021/04/01 09:40:41;;;;;;;17.92;6.40;;;19.50;90.40;;;;;;5031001;28;20025;-76
2021/04/01 09:43:19;;;;;;;15.70;6.78;;;19.60;90.50;;;;;;5047202;28;20384;-75
2021/04/01 09:45:58;;;;;;;13.07;5.70;;;19.90;90.00;;;;;;5038910;28;20021;-77
2021/04/01 09:48:31;;;;;;;14.45;5.95;;;19.90;89.90;;;;;;5070829;28;20028;-75
2021/04/01 09:51:00;;;;;;;18.25;5.88;;;19.90;90.10;;;;;;5056383;28;20969;-77
2021/04/01 09:53:28;;;;;;;16.07;6.13;;;19.80;88.30;;;;;;5051518;28;20020;-76
2021/04/01 09:55:56;;;;;;;15.02;6.28;;;19.90;89.80;;;;;;5043109;28;20390;-76
2021/04/01 09:58:38;;;;;;;17.92;6.50;;;20.00;89.50;;;;;;5037213;28;20040;-77
2021/04/01 10:03:58;;;;;;;15.02;6.00;;;20.40;88.00;;;;;;5044680;28;20127;-76
2021/04/01 10:06:37;;;;;;;13.75;5.90;;;20.40;88.40;;;;;;5079990;28;20036;-76
2021/04/01 10:09:07;;;;;;;15.82;5.70;;;20.50;88.10;;;;;;5036943;28;20057;-75
2021/04/01 10:11:38;;;;;;;14.98;5.68;;;20.50;88.40;;;;;;5040018;28;20040;-77
2021/04/01 10:14:07;;;;;;;13.63;6.20;;;20.60;88.30;;;;;;5040926;28;20098;-76
2021/04/01 10:16:34;;;;;;;12.35;5.57;;;20.40;88.50;;;;;;5036255;28;20033;-77
2021/04/01 10:19:02;;;;;;;14.15;5.95;;;20.50;88.40;;;;;;5038404;28;20021;-75
2021/04/01 10:21:28;;;;;;;16.98;6.40;;;20.50;88.70;;;;;;5046139;28;20025;-76
2021/04/01 10:23:56;;;;;;;13.65;7.03;;;20.50;88.30;;;;;;5050736;28;20056;-77
2021/04/01 10:26:39;;;;;;;16.25;6.03;;;20.60;88.50;;;;;;5050126;28;20024;-81
2021/04/01 10:29:23;;;;;;;14.25;5.70;;;20.70;87.50;;;;;;5034237;28;20079;-84
2021/04/01 10:31:50;;;;;;;12.85;6.15;;;20.80;87.50;;;;;;5034071;28;20500;-82
2021/04/01 10:34:21;;;;;;;13.32;5.72;;;20.90;88.20;;;;;;5050839;28;20029;-84
2021/04/01 10:36:50;;;;;;;13.15;5.80;;;20.80;88.20;;;;;;5039735;28;20041;-84
2021/04/01 10:39:18;;;;;;;10.85;5.45;;;20.80;88.10;;;;;;5052441;28;20021;-84
2021/04/01 10:41:47;;;;;;;17.77;5.15;;;20.90;88.10;;;;;;5041506;28;20037;-84
2021/04/01 10:44:14;;;;;;;10.10;5.68;;;21.00;89.40;;;;;;5048747;28;20100;-84
2021/04/01 10:46:52;;;;;;;16.10;5.53;;;21.10;87.60;;;;;;5053088;28;20477;-83
2021/04/01 10:49:27;;;;;;;10.10;4.75;;;21.00;87.70;;;;;;5031934;28;20041;-82
2021/04/01 10:51:56;;;;;;;14.27;5.18;;;21.00;87.60;;;;;;5033218;28;20373;-83
2021/04/01 10:54:23;;;;;;;14.18;4.95;;;21.10;87.40;;;;;;5056446;28;20013;-84
2021/04/01 10:56:55;;;;;;;15.18;5.13;;;21.20;88.00;;;;;;5063023;28;20027;-83
2021/04/01 10:59:39;;;;;;;14.95;5.30;;;21.10;87.90;;;;;;5048760;28;20055;-84
2021/04/01 11:02:29;;;;;;;13.05;5.80;;;21.00;88.70;;;;;;5047221;28;20539;-87
2021/04/01 11:05:02;;;;;;;15.20;5.32;;;21.00;88.80;;;;;;5033019;28;20554;-86
2021/04/01 11:07:34;;;;;;;12.05;5.50;;;21.10;89.00;;;;;;5057912;28;20284;-83
2021/04/01 11:10:02;;;;;;;14.00;5.47;;;21.10;88.80;;;;;;5039232;28;20037;-84
2021/04/01 11:12:28;;;;;;;13.55;5.18;;;21.10;89.20;;;;;;5057135;28;20013;-79
2021/04/01 11:15:03;;;;;;;13.52;5.15;;;21.30;89.40;;;;;;5073051;28;20048;-79
2021/04/01 11:17:31;;;;;;;14.75;5.53;;;21.50;89.10;;;;;;5075058;28;20017;-79
2021/04/01 11:19:59;;;;;;;12.93;4.88;;;21.50;88.60;;;;;;5071983;28;20148;-79
2021/04/01 11:22:25;;;;;;;12.45;4.90;;;21.40;88.50;;;;;;5067098;28;20025;-79
2021/04/01 11:24:51;;;;;;;17.65;5.85;;;21.50;87.90;;;;;;5062969;28;20037;-78
2021/04/01 11:27:20;;;;;;;11.95;4.72;;;21.50;87.80;;;;;;5038684;28;20395;-78
2021/04/01 11:29:53;;;;;;;13.20;5.40;;;21.60;89.30;;;;;;5033955;28;20049;-77
2021/04/01 11:32:22;;;;;;;9.73;4.35;;;21.60;89.50;;;;;;5039887;28;20028;-76
2021/04/01 11:34:50;;;;;;;9.98;4.53;;;21.60;87.70;;;;;;5049186;28;20029;-79
2021/04/01 11:37:22;;;;;;;10.15;4.25;;;21.60;88.50;;;;;;5050883;28;20414;-77
2021/04/01 11:39:49;;;;;;;13.65;4.43;;;21.70;87.70;;;;;;5041851;28;20037;-78
2021/04/01 11:42:19;;;;;;;13.57;5.32;;;21.80;88.20;;;;;;5046872;28;20025;-77
2021/04/01 11:44:45;;;;;;;10.75;5.00;;;21.90;88.20;;;;;;5030070;28;20554;-78
2021/04/01 11:47:23;;;;;;;10.70;4.55;;;21.90;87.50;;;;;;5038480;28;20033;-78
2021/04/01 11:49:50;;;;;;;8.52;4.35;;;22.00;87.00;;;;;;5028884;28;20041;-78
2021/04/01 11:52:17;;;;;;;14.40;4.93;;;22.10;86.90;;;;;;5037745;28;20117;-78
2021/04/01 11:54:45;;;;;;;10.90;4.18;;;22.10;87.10;;;;;;5039470;28;20087;-77
2021/04/01 11:57:32;;;;;;;11.73;3.92;;;22.10;87.70;;;;;;5044253;28;20029;-81
2021/04/01 12:00:13;;;;;;;10.40;4.03;;;22.30;87.20;;;;;;5037717;28;20087;-80
2021/04/01 12:05:25;;;;;;;8.00;3.25;;;22.50;87.00;;;;;;5043186;28;20056;-80
2021/04/01 12:07:52;;;;;;;7.85;3.20;;;22.50;85.30;;;;;;5041000;28;20120;-77
2021/04/01 12:10:18;;;;;;;10.50;3.65;;;22.50;85.50;;;;;;5037949;28;20040;-77
2021/04/01 12:12:43;;;;;;;8.77;3.33;;;22.60;85.30;;;;;;5043803;28;20020;-78
2021/04/01 12:15:10;;;;;;;16.45;4.18;;;22.80;85.20;;;;;;5033916;28;20465;-79
2021/04/01 12:17:39;;;;;;;10.88;3.67;;;22.80;85.00;;;;;;5032015;28;20508;-78
2021/04/01 12:20:11;;;;;;;12.80;3.77;;;22.80;85.10;;;;;;5037969;28;20119;-78
2021/04/01 12:22:39;;;;;;;9.45;3.88;;;22.70;85.40;;;;;;5045213;28;20287;-78
2021/04/01 12:25:11;;;;;;;10.68;3.53;;;22.70;85.40;;;;;;5029896;28;20018;-78
2021/04/01 12:27:47;;;;;;;9.13;3.30;;;22.70;84.90;;;;;;5031306;28;20026;-77
2021/04/01 12:30:23;;;;;;;7.07;3.55;;;22.80;84.40;;;;;;5047572;28;20025;-77
2021/04/01 12:32:50;;;;;;;10.30;3.88;;;22.60;84.40;;;;;;5044389;28;20036;-80
2021/04/01 12:35:17;;;;;;;8.00;3.53;;;22.50;84.60;;;;;;5042498;28;20037;-78
2021/04/01 12:37:55;;;;;;;9.13;3.60;;;22.60;84.80;;;;;;5046702;28;20025;-77
2021/04/01 12:40:21;;;;;;;8.02;3.63;;;22.50;84.80;;;;;;5035376;28;20481;-78
2021/04/01 12:42:48;;;;;;;10.35;3.78;;;22.60;85.10;;;;;;5033714;28;20032;-77
2021/04/01 12:45:18;;;;;;;6.15;3.33;;;22.60;84.70;;;;;;5040345;28;20296;-77
2021/04/01 12:47:45;;;;;;;8.20;3.80;;;22.90;85.10;;;;;;5045615;28;20029;-78
2021/04/01 12:50:11;;;;;;;10.23;3.63;;;23.10;85.10;;;;;;5044039;28;20026;-78
2021/04/01 12:52:52;;;;;;;9.52;3.63;;;23.00;84.30;;;;;;5029443;28;20017;-78
2021/04/01 12:55:56;;;;;;;8.73;3.47;;;22.90;84.00;;;;;;5037653;28;20056;-78
2021/04/01 12:58:48;;;;;;;8.10;3.03;;;22.80;83.90;;;;;;5029310;28;20025;-77
2021/04/01 13:04:04;;;;;;;9.43;3.05;;;22.90;83.50;;;;;;5039298;28;20107;-78
2021/04/01 13:07:01;;;;;;;8.82;3.40;;;23.00;84.40;;;;;;5040809;28;20503;-77
2021/04/01 13:09:46;;;;;;;8.05;3.47;;;23.00;84.30;;;;;;5042055;28;20057;-78
2021/04/01 13:12:15;;;;;;;7.53;3.03;;;23.10;84.30;;;;;;5030020;28;20029;-77
2021/04/01 13:14:41;;;;;;;10.13;3.33;;;23.10;83.30;;;;;;5042491;28;20052;-76
2021/04/01 13:17:08;;;;;;;11.88;3.88;;;22.70;83.70;;;;;;5052118;28;20037;-76
2021/04/01 13:19:34;;;;;;;7.53;2.90;;;22.90;83.50;;;;;;5038342;28;20025;-79
2021/04/01 13:25:32;;;;;;;9.90;3.72;;;22.90;82.90;;;;;;5040557;28;20025;-78
2021/04/01 13:27:27;;;;;;;9.20;3.38;;;22.90;83.10;;;;;;5041609;28;20063;-77
2021/04/01 13:29:56;;;;;;;8.52;4.03;;;22.80;83.10;;;;;;5048812;28;20554;-78
2021/04/01 13:32:35;;;;;;;7.80;3.50;;;22.80;83.10;;;;;;5046354;28;20032;-79
2021/04/01 13:35:09;;;;;;;11.52;3.42;;;22.80;82.80;;;;;;5035633;28;20103;-78
2021/04/01 13:37:40;;;;;;;9.32;3.65;;;22.90;82.70;;;;;;5035585;28;20022;-77
2021/04/01 13:40:14;;;;;;;9.70;3.55;;;22.80;83.40;;;;;;5035634;28;20039;-79
2021/04/01 13:42:44;;;;;;;13.05;4.78;;;22.70;83.50;;;;;;5040825;28;20799;-80
2021/04/01 13:47:41;;;;;;;7.32;4.15;;;23.00;84.30;;;;;;5054421;28;20045;-79
2021/04/01 13:50:08;;;;;;;9.65;3.63;;;23.00;84.10;;;;;;5045205;28;20033;-78
2021/04/01 13:52:39;;;;;;;8.60;3.63;;;23.30;82.80;;;;;;5041135;28;20105;-79
2021/04/01 13:55:20;;;;;;;8.40;3.47;;;23.30;82.30;;;;;;5043895;28;20036;-79
2021/04/01 13:58:18;;;;;;;8.23;3.30;;;23.30;82.00;;;;;;5042517;28;20111;-80
2021/04/01 14:09:20;;;;;;;11.88;3.53;;;22.90;83.30;;;;;;5042283;28;20440;-80
2021/04/01 14:11:47;;;;;;;;;;;23.00;82.80;;;;;;5044739;28;20036;-79
2021/04/01 14:14:12;;;;;;;7.03;3.28;;;23.10;82.50;;;;;;5049573;28;19913;-78
2021/04/01 14:16:41;;;;;;;9.82;3.30;;;22.90;81.80;;;;;;5046475;28;20037;-80
2021/04/01 14:19:07;;;;;;;8.93;3.97;;;23.20;82.50;;;;;;5039726;28;20161;-79
2021/04/01 14:21:33;;;;;;;8.70;3.50;;;23.30;81.50;;;;;;5047706;28;20331;-79
2021/04/01 14:24:05;;;;;;;7.15;3.20;;;23.50;82.00;;;;;;5053178;28;20025;-79
2021/04/01 14:26:38;;;;;;;10.48;3.78;;;24.00;82.20;;;;;;5053151;28;20021;-77
2021/04/01 14:29:05;;;;;;;9.82;4.00;;;24.20;81.00;;;;;;5054311;28;20574;-75
2021/04/01 14:31:34;;;;;;;12.45;4.38;;;24.50;80.60;;;;;;5053875;28;20029;-77
2021/04/01 14:34:02;;;;;;;7.50;4.03;;;23.90;80.30;;;;;;5049039;28;20111;-78